Time;durP1;ratioP1;P1;durP2;ratioP2;P2;SDS_P1;SDS_P2;PMS_P1;PMS_P2;Temp;Humidity;BMP_temperature;BMP_pressure;BME280_temperature;BME280_humidity;BME280_pressure;Samples;Min_cycle;Max_cycle;Signal;HPM_P1;HPM_P2
2022/09/10 00:01:34;;;;;;;10.75;9.27;;;;;;;20.20;100.00;99838.84;5032492;28;20487;-75
2022/09/10 00:04:03;;;;;;;10.55;8.55;;;;;;;20.20;100.00;99830.72;5032758;28;20096;-79
2022/09/10 00:06:34;;;;;;;11.98;8.50;;;;;;;20.20;100.00;99836.13;5032747;28;20068;-75
2022/09/10 00:09:04;;;;;;;10.70;8.93;;;;;;;20.20;100.00;99831.56;5032571;28;20440;-74
2022/09/10 00:11:34;;;;;;;10.50;8.00;;;;;;;20.28;100.00;99823.47;5032444;28;20117;-74
2022/09/10 00:14:04;;;;;;;10.63;8.77;;;;;;;20.15;100.00;99824.91;5032382;28;20052;-75
2022/09/10 00:16:32;;;;;;;9.55;8.27;;;;;;;20.10;100.00;99835.41;5032601;28;20051;-75
2022/09/10 00:19:01;;;;;;;11.32;8.73;;;;;;;20.15;100.00;99830.34;5032587;28;20132;-73
2022/09/10 00:21:30;;;;;;;11.25;8.40;;;;;;;20.10;100.00;99816.47;5035074;28;20132;-73
2022/09/10 00:23:58;;;;;;;10.75;8.50;;;;;;;20.00;100.00;99812.03;5035987;28;20471;-74
2022/09/10 00:26:33;;;;;;;12.20;8.90;;;;;;;20.01;100.00;99805.59;5035819;28;20041;-74
2022/09/10 00:29:01;;;;;;;12.18;9.27;;;;;;;19.98;100.00;99803.22;5036092;28;20053;-73
2022/09/10 00:31:30;;;;;;;11.93;9.10;;;;;;;19.93;100.00;99810.13;5035832;28;20077;-74
2022/09/10 00:33:59;;;;;;;12.73;9.57;;;;;;;19.87;100.00;99811.63;5035736;28;20076;-75
2022/09/10 00:36:31;;;;;;;11.88;9.45;;;;;;;19.82;100.00;99818.53;5035445;28;20053;-76
2022/09/10 00:39:02;;;;;;;11.63;10.23;;;;;;;19.77;100.00;99820.88;5035451;28;20048;-76
2022/09/10 00:41:33;;;;;;;12.38;9.52;;;;;;;19.76;100.00;99820.03;5035838;28;20053;-78
2022/09/10 00:44:04;;;;;;;11.95;9.55;;;;;;;19.73;100.00;99809.53;5035755;28;20083;-78
2022/09/10 00:46:41;;;;;;;13.82;9.85;;;;;;;19.76;100.00;99809.19;5035498;28;20041;-77
2022/09/10 00:49:15;;;;;;;13.07;9.75;;;;;;;19.82;100.00;99800.44;5035312;28;20099;-77
2022/09/10 00:51:45;;;;;;;11.88;9.32;;;;;;;19.87;100.00;99810.75;5035361;28;20037;-76
2022/09/10 00:54:14;;;;;;;12.43;9.77;;;;;;;19.83;100.00;99804.00;5035229;28;20092;-77
2022/09/10 00:56:45;;;;;;;13.27;10.30;;;;;;;19.87;100.00;99799.94;5035157;28;20077;-76
2022/09/10 00:59:16;;;;;;;11.23;9.60;;;;;;;19.85;100.00;99799.25;5035228;28;20045;-77
2022/09/10 01:01:45;;;;;;;12.95;9.73;;;;;;;19.86;100.00;99798.25;5035599;28;20107;-76
2022/09/10 01:04:14;;;;;;;12.23;9.23;;;;;;;19.82;100.00;99786.06;5034807;28;20084;-77
2022/09/10 01:06:45;;;;;;;10.95;9.55;;;;;;;19.77;100.00;99783.84;5035305;28;20049;-75
2022/09/10 01:09:14;;;;;;;11.93;9.90;;;;;;;19.75;100.00;99780.44;5034964;28;20049;-75
2022/09/10 01:12:00;;;;;;;12.32;9.70;;;;;;;19.72;100.00;99772.66;5035177;28;20046;-74
2022/09/10 01:14:47;;;;;;;11.82;10.27;;;;;;;19.58;100.00;99784.06;5033575;28;20053;-77
2022/09/10 01:17:27;;;;;;;11.90;9.85;;;;;;;19.40;100.00;99782.28;5035091;28;20045;-76
2022/09/10 01:20:25;;;;;;;13.48;10.35;;;;;;;19.49;100.00;99782.31;5034869;28;20067;-77
2022/09/10 01:23:27;;;;;;;13.07;10.40;;;;;;;19.52;100.00;99774.72;5033446;28;20046;-77
2022/09/10 01:26:07;;;;;;;12.98;10.75;;;;;;;19.49;100.00;99768.78;5034784;28;20068;-76
2022/09/10 01:28:45;;;;;;;14.50;11.30;;;;;;;19.44;100.00;99753.91;5034869;28;20061;-76
2022/09/10 01:31:21;;;;;;;14.10;11.27;;;;;;;19.45;100.00;99755.59;5034624;28;20072;-75
2022/09/10 01:33:56;;;;;;;15.00;11.50;;;;;;;19.47;100.00;99766.25;5034436;28;20124;-75
2022/09/10 01:36:28;;;;;;;14.68;11.07;;;;;;;19.58;100.00;99746.22;5033210;28;20049;-75
2022/09/10 01:38:57;;;;;;;14.75;10.75;;;;;;;19.58;100.00;99746.22;5033241;28;20050;-74
2022/09/10 01:41:28;;;;;;;14.38;10.45;;;;;;;19.69;100.00;99743.25;5034216;28;20041;-74
2022/09/10 01:43:57;;;;;;;13.90;10.70;;;;;;;19.63;100.00;99733.91;5034699;28;20041;-74
2022/09/10 01:46:40;;;;;;;13.02;10.68;;;;;;;19.63;100.00;99738.47;5034305;28;20069;-74
2022/09/10 01:49:29;;;;;;;14.52;10.98;;;;;;;19.66;100.00;99746.25;5034370;28;20067;-73
2022/09/10 01:52:17;;;;;;;12.80;10.80;;;;;;;19.59;100.00;99726.25;5034091;28;20480;-73
2022/09/10 01:55:02;;;;;;;12.63;10.23;;;;;;;19.49;100.00;99733.63;5034269;28;20407;-73
2022/09/10 01:57:41;;;;;;;13.00;10.15;;;;;;;19.48;100.00;99740.03;5033741;28;20492;-73
2022/09/10 02:00:17;;;;;;;12.73;10.00;;;;;;;19.53;100.00;99753.94;5033831;28;20459;-73
2022/09/10 02:02:51;;;;;;;13.45;10.32;;;;;;;19.39;100.00;99753.53;5034239;28;20042;-73
2022/09/10 02:05:23;;;;;;;12.88;9.05;;;;;;;19.27;100.00;99733.19;5034062;28;20049;-72
2022/09/10 02:07:55;;;;;;;10.82;9.05;;;;;;;19.35;100.00;99708.88;5034204;28;20404;-72
2022/09/10 02:10:24;;;;;;;10.10;7.43;;;;;;;19.20;100.00;99715.91;5033807;28;20053;-73
2022/09/10 02:12:52;;;;;;;10.40;7.70;;;;;;;18.93;100.00;99714.22;5033634;28;20054;-72
2022/09/10 02:15:24;;;;;;;8.40;6.78;;;;;;;19.06;100.00;99713.81;5033761;28;20099;-74
2022/09/10 02:17:53;;;;;;;9.30;5.70;;;;;;;18.88;100.00;99709.28;5033919;28;20048;-73
2022/09/10 02:20:21;;;;;;;8.00;5.25;;;;;;;18.76;100.00;99721.38;5033575;28;20056;-74
2022/09/10 02:22:55;;;;;;;7.18;5.15;;;;;;;18.65;100.00;99716.22;5032474;28;20049;-74
2022/09/10 02:25:25;;;;;;;6.35;4.80;;;;;;;18.46;100.00;99710.97;5033417;28;20037;-74
2022/09/10 02:27:55;;;;;;;8.55;4.82;;;;;;;18.53;100.00;99712.06;5032405;28;20049;-74
2022/09/10 02:30:24;;;;;;;6.55;4.00;;;;;;;18.56;100.00;99711.72;5033451;28;20492;-74
2022/09/10 02:32:52;;;;;;;7.40;4.47;;;;;;;18.55;100.00;99712.72;5033646;28;20053;-74
2022/09/10 02:35:20;;;;;;;7.88;4.85;;;;;;;18.35;100.00;99708.50;5033157;28;20041;-74
2022/09/10 02:37:49;;;;;;;5.85;4.10;;;;;;;18.22;100.00;99720.53;5033250;28;20484;-75
2022/09/10 02:40:18;;;;;;;6.32;3.70;;;;;;;18.05;100.00;99718.69;5032836;28;20129;-75
2022/09/10 02:42:46;;;;;;;7.82;3.70;;;;;;;18.10;100.00;99710.97;5032081;28;20467;-74
2022/09/10 02:45:15;;;;;;;4.90;3.03;;;;;;;18.00;100.00;99708.34;5032395;28;20400;-75
2022/09/10 02:47:44;;;;;;;7.15;3.10;;;;;;;18.10;100.00;99693.91;5033593;28;20052;-75
2022/09/10 02:50:12;;;;;;;5.93;3.15;;;;;;;18.07;100.00;99695.09;5032865;28;20462;-77
2022/09/10 02:52:41;;;;;;;6.00;3.45;;;;;;;18.06;100.00;99692.56;5033267;28;20049;-75
2022/09/10 02:55:10;;;;;;;7.68;3.28;;;;;;;17.94;100.00;99706.22;5033313;28;20407;-75
2022/09/10 02:57:39;;;;;;;5.93;3.50;;;;;;;17.85;100.00;99709.00;5032927;28;20102;-75
2022/09/10 03:00:09;;;;;;;5.53;3.30;;;;;;;17.90;100.00;99709.41;5032932;28;20052;-75
2022/09/10 03:02:37;;;;;;;6.28;3.33;;;;;;;17.78;100.00;99705.22;5032884;28;20424;-76
2022/09/10 03:05:07;;;;;;;6.00;2.80;;;;;;;17.78;100.00;99716.88;5032965;28;20466;-75
2022/09/10 03:07:35;;;;;;;4.25;2.70;;;;;;;17.69;100.00;99725.84;5033045;28;20121;-75
2022/09/10 03:10:04;;;;;;;5.43;2.50;;;;;;;17.57;100.00;99730.59;5033106;28;20049;-75
2022/09/10 03:12:32;;;;;;;3.60;1.98;;;;;;;17.52;100.00;99734.72;5032737;28;20077;-76
2022/09/10 03:15:01;;;;;;;4.07;2.22;;;;;;;17.47;100.00;99735.19;5032991;28;20083;-75
2022/09/10 03:17:30;;;;;;;3.53;2.15;;;;;;;17.49;100.00;99730.47;5032596;28;20045;-75
2022/09/10 03:20:07;;;;;;;4.32;2.03;;;;;;;17.50;100.00;99724.09;5032714;28;20041;-76
2022/09/10 03:22:37;;;;;;;3.97;1.85;;;;;;;17.49;100.00;99722.38;5031479;28;20057;-75
2022/09/10 03:25:06;;;;;;;5.82;2.25;;;;;;;17.61;100.00;99726.56;5031809;28;20053;-75
2022/09/10 03:27:35;;;;;;;4.03;1.65;;;;;;;17.75;100.00;99722.53;5032407;28;20500;-75
2022/09/10 03:30:03;;;;;;;3.65;1.83;;;;;;;17.58;100.00;99737.69;5032538;28;20120;-75
2022/09/10 03:32:32;;;;;;;4.20;1.60;;;;;;;17.65;100.00;99727.97;5031055;28;20504;-75
2022/09/10 03:35:00;;;;;;;4.15;1.92;;;;;;;17.66;100.00;99724.28;5032815;28;20385;-75
2022/09/10 03:37:30;;;;;;;3.80;1.83;;;;;;;17.71;100.00;99723.88;5032585;28;20451;-74
2022/09/10 03:39:58;;;;;;;5.22;1.80;;;;;;;17.64;100.00;99720.88;5032831;28;20072;-75
2022/09/10 03:42:26;;;;;;;3.63;1.95;;;;;;;17.63;100.00;99724.56;5032470;28;20046;-75
2022/09/10 03:44:55;;;;;;;6.35;2.30;;;;;;;17.56;100.00;99734.25;5032905;28;20099;-75
2022/09/10 03:47:25;;;;;;;4.05;1.67;;;;;;;17.47;100.00;99716.31;5032324;28;20049;-75
2022/09/10 03:49:55;;;;;;;3.72;1.50;;;;;;;17.50;100.00;99716.00;5032720;28;20442;-74
2022/09/10 03:52:23;;;;;;;2.95;1.65;;;;;;;17.43;100.00;99722.97;5031200;28;20389;-73
2022/09/10 03:54:52;;;;;;;4.70;1.85;;;;;;;17.45;100.00;99726.38;5031807;28;20052;-74
2022/09/10 03:57:21;;;;;;;3.70;1.70;;;;;;;17.29;100.00;99726.16;5036317;28;20041;-74
2022/09/10 03:59:49;;;;;;;3.58;1.50;;;;;;;17.21;100.00;99720.66;5036420;28;20042;-74
2022/09/10 04:02:17;;;;;;;3.20;1.45;;;;;;;17.28;100.00;99713.69;5036148;28;20480;-76
2022/09/10 04:04:45;;;;;;;2.90;1.30;;;;;;;17.35;100.00;99704.84;5036279;28;20049;-74
2022/09/10 04:07:13;;;;;;;4.55;1.60;;;;;;;17.43;100.00;99712.19;5036220;28;20056;-74
2022/09/10 04:09:41;;;;;;;3.83;1.80;;;;;;;17.44;100.00;99711.19;5036044;28;20480;-75
2022/09/10 04:12:11;;;;;;;3.45;1.58;;;;;;;17.43;100.00;99718.44;5036239;28;20049;-75
2022/09/10 04:14:39;;;;;;;3.15;1.38;;;;;;;17.38;100.00;99712.66;5035915;28;20500;-75
2022/09/10 04:17:07;;;;;;;3.03;1.48;;;;;;;17.34;100.00;99723.88;5036242;28;20377;-74
2022/09/10 04:19:37;;;;;;;1.98;1.30;;;;;;;17.22;100.00;99723.19;5035743;28;20068;-75
2022/09/10 04:22:06;;;;;;;2.60;1.27;;;;;;;17.22;100.00;99719.66;5036161;28;20077;-75
2022/09/10 04:24:34;;;;;;;4.05;1.30;;;;;;;17.38;100.00;99717.19;5034606;28;20532;-76
2022/09/10 04:27:02;;;;;;;2.13;1.40;;;;;;;17.38;100.00;99723.44;5035946;28;20049;-76
2022/09/10 04:29:32;;;;;;;3.42;1.55;;;;;;;17.34;100.00;99724.72;5035568;28;20503;-76
2022/09/10 04:32:00;;;;;;;5.03;1.40;;;;;;;17.30;100.00;99725.16;5035675;28;20052;-76
2022/09/10 04:34:28;;;;;;;3.15;1.33;;;;;;;17.35;100.00;99726.41;5035442;28;20037;-76
2022/09/10 04:36:56;;;;;;;4.55;1.27;;;;;;;17.21;100.00;99734.13;5035791;28;20057;-76
2022/09/10 04:39:24;;;;;;;1.85;1.17;;;;;;;17.30;100.00;99738.66;5035602;28;20052;-77
2022/09/10 04:41:52;;;;;;;3.78;1.40;;;;;;;17.31;100.00;99746.56;5034396;28;20052;-77
2022/09/10 04:44:20;;;;;;;2.28;1.35;;;;;;;17.41;100.00;99739.31;5035430;28;20041;-75
2022/09/10 04:46:50;;;;;;;3.83;1.50;;;;;;;17.46;100.00;99739.69;5035506;28;20037;-76
2022/09/10 04:49:18;;;;;;;3.83;1.33;;;;;;;17.37;100.00;99739.72;5035446;28;20049;-76
2022/09/10 04:51:46;;;;;;;3.08;1.40;;;;;;;17.30;100.00;99746.72;5035308;28;20051;-76
2022/09/10 04:54:15;;;;;;;3.15;1.42;;;;;;;17.22;100.00;99744.75;5035486;28;20049;-75
2022/09/10 04:56:43;;;;;;;2.03;1.00;;;;;;;17.20;100.00;99745.91;5035358;28;20468;-76
2022/09/10 04:59:11;;;;;;;2.60;1.35;;;;;;;17.21;100.00;99750.31;5034131;28;20473;-75
2022/09/10 05:01:40;;;;;;;1.90;1.10;;;;;;;17.21;100.00;99750.31;5034765;28;20045;-75
2022/09/10 05:04:09;;;;;;;3.10;1.27;;;;;;;17.24;100.00;99745.47;5034219;28;20049;-76
2022/09/10 05:06:37;;;;;;;1.75;1.15;;;;;;;17.16;100.00;99746.19;5034184;28;20084;-76
2022/09/10 05:09:05;;;;;;;2.75;1.27;;;;;;;17.06;100.00;99737.28;5035230;28;20443;-75
2022/09/10 05:11:33;;;;;;;3.80;1.25;;;;;;;17.24;100.00;99739.22;5034833;28;20496;-75
2022/09/10 05:14:02;;;;;;;2.53;1.33;;;;;;;17.12;100.00;99734.00;5034973;28;20065;-75
2022/09/10 05:16:30;;;;;;;2.40;1.42;;;;;;;17.24;100.00;99739.22;5033411;28;20049;-75
2022/09/10 05:18:58;;;;;;;1.27;1.02;;;;;;;17.37;100.00;99737.03;5033507;28;20555;-75
2022/09/10 05:21:29;;;;;;;2.90;1.20;;;;;;;17.30;100.00;99746.72;5034442;28;20080;-76
2022/09/10 05:23:58;;;;;;;4.07;1.30;;;;;;;17.31;100.00;99745.72;5034871;28;20428;-73
2022/09/10 05:26:26;;;;;;;3.78;1.60;;;;;;;17.30;100.00;99749.44;5034549;28;20068;-73
2022/09/10 05:28:54;;;;;;;4.25;1.50;;;;;;;17.42;100.00;99748.25;5034562;28;20049;-72
2022/09/10 05:31:22;;;;;;;3.30;1.25;;;;;;;17.33;100.00;99751.81;5034297;28;20092;-77
2022/09/10 05:33:52;;;;;;;1.88;1.20;;;;;;;17.39;100.00;99759.31;5034410;28;20053;-76
2022/09/10 05:36:20;;;;;;;3.55;1.25;;;;;;;17.34;100.00;99761.59;5032809;28;20045;-77
2022/09/10 05:38:50;;;;;;;3.42;1.30;;;;;;;17.64;100.00;99753.22;5034004;28;20056;-78
2022/09/10 05:41:18;;;;;;;2.58;1.23;;;;;;;17.86;100.00;99749.34;5032883;28;20121;-76
2022/09/10 05:43:46;;;;;;;5.07;1.33;;;;;;;18.00;100.00;99750.66;5033635;28;20041;-77
2022/09/10 05:46:14;;;;;;;3.08;1.33;;;;;;;17.92;100.00;99748.72;5033608;28;20050;-75
2022/09/10 05:48:42;;;;;;;2.53;1.25;;;;;;;18.14;100.00;99738.47;5033330;28;20127;-76
2022/09/10 05:51:11;;;;;;;2.55;1.20;;;;;;;17.96;100.00;99749.28;5032710;28;20136;-77
2022/09/10 05:53:40;;;;;;;3.55;1.30;;;;;;;18.11;100.00;99750.44;5032155;28;20441;-77
2022/09/10 05:56:10;;;;;;;4.38;1.45;;;;;;;18.05;100.00;99759.16;5034157;28;20091;-76
2022/09/10 05:58:38;;;;;;;1.55;1.20;;;;;;;17.86;100.00;99756.59;5033496;28;20050;-77
2022/09/10 06:01:06;;;;;;;2.08;1.25;;;;;;;17.90;100.00;99760.66;5033812;28;20136;-73
2022/09/10 06:03:34;;;;;;;3.05;1.17;;;;;;;18.01;100.00;99760.44;5033695;28;20045;-72
2022/09/10 06:06:03;;;;;;;4.13;1.48;;;;;;;18.08;100.00;99756.16;5032535;28;20048;-74
2022/09/10 06:08:31;;;;;;;4.30;1.60;;;;;;;18.39;100.00;99747.69;5033718;28;20136;-75
2022/09/10 06:11:01;;;;;;;2.22;1.25;;;;;;;18.24;100.00;99756.34;5032484;28;20051;-75
2022/09/10 06:13:32;;;;;;;2.60;1.40;;;;;;;18.22;100.00;99766.41;5033673;28;20049;-74
2022/09/10 06:16:00;;;;;;;2.35;1.17;;;;;;;18.31;100.00;99770.91;5033901;28;20055;-73
2022/09/10 06:18:30;;;;;;;4.07;1.30;;;;;;;18.33;100.00;99754.53;5033387;28;20046;-75
2022/09/10 06:21:04;;;;;;;2.53;1.40;;;;;;;18.57;100.00;99751.22;5033606;28;20053;-76
2022/09/10 06:23:32;;;;;;;4.40;1.55;;;;;;;18.81;100.00;99754.16;5032295;28;20075;-75
2022/09/10 06:26:03;;;;;;;3.25;1.40;;;;;;;18.78;100.00;99751.78;5032136;28;20412;-75
2022/09/10 06:28:33;;;;;;;3.13;1.50;;;;;;;19.01;100.00;99751.25;5031927;28;20049;-76
2022/09/10 06:31:03;;;;;;;2.75;1.30;;;;;;;19.02;100.00;99761.09;5033532;28;20099;-76
2022/09/10 06:33:31;;;;;;;2.95;1.10;;;;;;;19.13;100.00;99745.44;5033215;28;20068;-72
2022/09/10 06:36:02;;;;;;;2.72;1.20;;;;;;;19.22;100.00;99749.06;5033648;28;20037;-74
2022/09/10 06:38:32;;;;;;;2.47;1.10;;;;;;;19.34;100.00;99753.16;5032073;28;20128;-78
2022/09/10 06:41:03;;;;;;;2.13;1.35;;;;;;;19.79;100.00;99743.94;5033479;28;20045;-75
2022/09/10 06:43:35;;;;;;;4.07;1.50;;;;;;;19.24;100.00;99749.72;5033159;28;20427;-78
2022/09/10 06:46:09;;;;;;;2.00;1.30;;;;;;;19.04;100.00;99751.81;5032079;28;20045;-75
2022/09/10 06:48:59;;;;;;;4.18;1.30;;;;;;;18.83;100.00;99746.75;5033242;28;20044;-73
2022/09/10 06:51:28;;;;;;;2.08;1.08;;;;;;;18.92;100.00;99749.53;5032995;28;20041;-77
2022/09/10 06:53:56;;;;;;;3.95;1.42;;;;;;;18.95;100.00;99760.00;5032947;28;20065;-78
2022/09/10 06:56:25;;;;;;;4.03;1.50;;;;;;;19.30;100.00;99754.50;5033100;28;20043;-76
2022/09/10 06:58:56;;;;;;;1.77;1.17;;;;;;;19.47;100.00;99760.00;5036820;28;20041;-76
2022/09/10 07:01:29;;;;;;;3.85;1.40;;;;;;;19.22;100.00;99767.97;5033061;28;20033;-75
2022/09/10 07:03:59;;;;;;;2.95;1.15;;;;;;;19.34;100.00;99777.50;5032642;28;20041;-78
2022/09/10 07:06:32;;;;;;;2.65;1.40;;;;;;;19.21;100.00;99768.13;5033123;28;20046;-79
2022/09/10 07:09:01;;;;;;;4.15;1.45;;;;;;;19.02;100.00;99778.16;5033370;28;20056;-77
2022/09/10 07:11:30;;;;;;;2.85;1.27;;;;;;;18.83;100.00;99787.28;5031620;28;20111;-76
2022/09/10 07:14:01;;;;;;;3.22;1.42;;;;;;;19.00;100.00;99780.13;5033303;28;20057;-75
2022/09/10 07:16:29;;;;;;;3.97;1.50;;;;;;;18.91;100.00;99777.53;5033152;28;20062;-80
2022/09/10 07:18:59;;;;;;;2.85;1.50;;;;;;;18.94;100.00;99774.53;5031456;28;20049;-75
2022/09/10 07:21:29;;;;;;;2.30;1.50;;;;;;;18.78;100.00;99775.25;5031368;28;20513;-74
2022/09/10 07:23:59;;;;;;;2.47;1.40;;;;;;;18.92;100.00;99779.25;5031271;28;20064;-79
2022/09/10 07:26:28;;;;;;;4.53;1.60;;;;;;;18.74;100.00;99780.13;5032416;28;20049;-76
2022/09/10 07:28:58;;;;;;;3.75;1.48;;;;;;;18.89;100.00;99780.38;5031475;28;20046;-78
2022/09/10 07:31:29;;;;;;;5.20;1.80;;;;;;;18.94;100.00;99775.38;5034535;28;20132;-81
2022/09/10 07:33:58;;;;;;;4.25;1.60;;;;;;;18.71;100.00;99783.09;5035748;28;20056;-76
2022/09/10 07:36:27;;;;;;;4.68;2.38;;;;;;;18.74;100.00;99788.22;5036778;28;20500;-77
2022/09/10 07:39:00;;;;;;;6.95;2.20;;;;;;;18.80;100.00;99792.97;5036721;28;20045;-78
2022/09/10 07:41:29;;;;;;;3.95;1.83;;;;;;;18.69;100.00;99795.94;5036613;28;20041;-79
2022/09/10 07:43:58;;;;;;;4.75;1.85;;;;;;;18.64;100.00;99792.81;5035341;28;20496;-79
2022/09/10 07:46:28;;;;;;;4.72;1.90;;;;;;;18.53;100.00;99801.16;5036859;28;20053;-79
2022/09/10 07:48:59;;;;;;;3.10;1.70;;;;;;;18.58;100.00;99809.63;5037278;28;20072;-83
2022/09/10 07:51:29;;;;;;;3.78;1.60;;;;;;;18.56;100.00;99812.50;5037626;28;20051;-80
2022/09/10 07:53:59;;;;;;;3.50;1.77;;;;;;;18.57;100.00;99810.66;5035169;28;20054;-80
2022/09/10 07:56:31;;;;;;;2.97;1.70;;;;;;;18.47;100.00;99809.88;5036673;28;20041;-80
2022/09/10 07:59:01;;;;;;;3.28;1.90;;;;;;;18.34;100.00;99815.66;5036975;28;20124;-79
2022/09/10 08:01:31;;;;;;;5.18;1.90;;;;;;;18.23;100.00;99810.44;5036551;28;20131;-79
2022/09/10 08:03:59;;;;;;;3.72;2.00;;;;;;;18.26;100.00;99819.13;5036174;28;20556;-75
2022/09/10 08:06:27;;;;;;;4.40;1.83;;;;;;;18.36;100.00;99823.59;5034558;28;20128;-75
2022/09/10 08:08:55;;;;;;;4.47;1.88;;;;;;;18.27;100.00;99826.22;5035747;28;20084;-75
2022/09/10 08:11:24;;;;;;;3.00;1.70;;;;;;;18.15;100.00;99813.94;5035904;28;20137;-75
2022/09/10 08:13:55;;;;;;;6.00;2.00;;;;;;;18.18;100.00;99810.91;5034634;28;20427;-75
2022/09/10 08:16:25;;;;;;;4.07;1.95;;;;;;;18.18;100.00;99818.16;5036134;28;20042;-75
2022/09/10 08:18:56;;;;;;;4.38;2.08;;;;;;;18.26;100.00;99820.97;5034504;28;20125;-75
2022/09/10 08:21:25;;;;;;;4.95;2.35;;;;;;;18.42;100.00;99820.28;5034598;28;20056;-75
2022/09/10 08:23:54;;;;;;;2.72;1.73;;;;;;;18.41;100.00;99823.97;5035532;28;20045;-75
2022/09/10 08:26:24;;;;;;;2.90;1.70;;;;;;;18.62;100.00;99824.53;5034783;28;20111;-74
2022/09/10 08:28:54;;;;;;;4.32;1.83;;;;;;;18.64;100.00;99827.94;5034339;28;20352;-75
2022/09/10 08:31:23;;;;;;;4.60;2.00;;;;;;;18.87;100.00;99817.53;5035843;28;20542;-75
2022/09/10 08:33:53;;;;;;;4.20;1.90;;;;;;;18.96;100.00;99813.06;5035447;28;20053;-74
2022/09/10 08:36:24;;;;;;;3.13;1.80;;;;;;;19.09;100.00;99813.47;5034060;28;20072;-75
2022/09/10 08:38:53;;;;;;;4.82;1.80;;;;;;;19.28;100.00;99821.41;5035655;28;20043;-75
2022/09/10 08:41:41;;;;;;;3.63;1.70;;;;;;;19.28;100.00;99821.41;5035435;28;20511;-75
2022/09/10 08:44:16;;;;;;;4.30;2.00;;;;;;;19.66;100.00;99820.16;5035369;28;20451;-75
2022/09/10 08:46:48;;;;;;;4.57;2.00;;;;;;;19.73;100.00;99823.06;5034881;28;20046;-75
2022/09/10 08:49:22;;;;;;;3.30;2.08;;;;;;;19.70;100.00;99826.94;5034047;28;20084;-75
2022/09/10 08:51:57;;;;;;;2.42;1.65;;;;;;;19.65;100.00;99825.72;5034815;28;20089;-75
2022/09/10 08:54:31;;;;;;;3.92;2.10;;;;;;;19.92;100.00;99820.09;5035318;28;20042;-76
2022/09/10 08:57:02;;;;;;;4.28;2.10;;;;;;;20.18;100.00;99825.47;5035112;28;20448;-76
2022/09/10 08:59:38;;;;;;;3.45;2.00;;;;;;;20.43;100.00;99823.69;5034761;28;20045;-76
2022/09/10 09:02:17;;;;;;;4.35;1.83;;;;;;;20.52;100.00;99817.28;5034960;28;20052;-76
2022/09/10 09:05:14;;;;;;;4.10;1.90;;;;;;;20.53;100.00;99812.69;5034888;28;20124;-76
2022/09/10 09:07:45;;;;;;;3.03;1.88;;;;;;;20.92;100.00;99818.31;5033488;28;20049;-75
2022/09/10 09:10:20;;;;;;;3.10;1.75;;;;;;;21.18;100.00;99817.31;5035085;28;20042;-75
2022/09/10 09:13:26;;;;;;;2.80;1.63;;;;;;;21.32;100.00;99816.63;5034669;28;20407;-75
2022/09/10 09:16:04;;;;;;;4.45;1.70;;;;;;;21.40;100.00;99832.91;5033116;28;20500;-76
2022/09/10 09:18:38;;;;;;;5.85;1.60;;;;;;;21.03;100.00;99828.81;5033879;28;20045;-75
2022/09/10 09:21:15;;;;;;;2.05;1.33;;;;;;;20.72;100.00;99827.81;5033652;28;20506;-75
2022/09/10 09:23:53;;;;;;;1.88;1.15;;;;;;;20.80;100.00;99831.38;5034545;28;20041;-75
2022/09/10 09:26:45;;;;;;;3.53;1.38;;;;;;;20.63;100.00;99828.81;5033097;28;20045;-75
2022/09/10 09:29:19;;;;;;;1.50;1.08;;;;;;;20.28;100.00;99820.75;5034755;28;20041;-74
2022/09/10 09:31:49;;;;;;;1.58;1.08;;;;;;;20.19;100.00;99829.88;5034356;28;20557;-74
2022/09/10 09:34:23;;;;;;;2.42;1.20;;;;;;;20.28;100.00;99828.03;5032969;28;20054;-79
2022/09/10 09:36:53;;;;;;;2.25;1.13;;;;;;;20.25;100.00;99831.03;5034009;28;20107;-73
2022/09/10 09:39:28;;;;;;;2.92;1.30;;;;;;;20.64;100.00;99830.50;5033365;28;20053;-74
2022/09/10 09:42:05;;;;;;;3.60;1.38;;;;;;;20.69;100.00;99825.44;5032783;28;20057;-77
2022/09/10 09:44:38;;;;;;;3.17;1.00;;;;;;;20.73;100.00;99824.06;5034138;28;20439;-78
2022/09/10 09:47:07;;;;;;;6.43;1.50;;;;;;;20.82;100.00;99823.06;5032711;28;20450;-77
2022/09/10 09:49:36;;;;;;;2.95;1.10;;;;;;;20.73;100.00;99827.63;5034344;28;20045;-78
2022/09/10 09:52:17;;;;;;;3.63;1.20;;;;;;;20.75;100.00;99816.63;5032585;28;20065;-76
2022/09/10 09:54:50;;;;;;;2.60;0.85;;;;;;;20.83;100.00;99822.88;5032055;28;20055;-74
2022/09/10 09:57:41;;;;;;;1.25;0.80;;;;;;;20.91;100.00;99816.63;5032406;28;20049;-78
2022/09/10 10:00:34;;;;;;;1.80;1.00;;;;;;;21.47;100.00;99823.06;5032894;28;20411;-75
2022/09/10 10:03:14;;;;;;;1.55;0.90;;;;;;;21.48;100.00;99804.91;5032585;28;20115;-77
2022/09/10 10:05:42;;;;;;;2.15;1.10;;;;;;;21.81;100.00;99811.06;5033004;28;20053;-77
2022/09/10 10:08:30;;;;;;;2.42;1.30;;;;;;;21.67;100.00;99804.53;5035046;28;20049;-78
2022/09/10 10:11:00;;;;;;;2.63;1.05;;;;;;;21.98;100.00;99799.13;5033951;28;20049;-74
2022/09/10 10:13:37;;;;;;;1.80;1.02;;;;;;;21.74;100.00;99804.69;5033817;28;20073;-74
2022/09/10 10:16:16;;;;;;;4.70;1.30;;;;;;;22.05;100.00;99794.69;5034351;28;20041;-76
2022/09/10 10:18:45;;;;;;;2.45;1.10;;;;;;;21.84;100.00;99794.47;5032701;28;20103;-76
2022/09/10 10:21:17;;;;;;;3.20;0.85;;;;;;;22.05;100.00;99786.56;5032588;28;20500;-78
2022/09/10 10:23:46;;;;;;;4.90;1.03;;;;;;;22.26;100.00;99789.53;5034371;28;20095;-76
2022/09/10 10:26:30;;;;;;;2.05;0.93;;;;;;;22.06;100.00;99788.25;5033467;28;20042;-77
2022/09/10 10:29:02;;;;;;;0.90;0.80;;;;;;;22.07;100.00;99797.25;5034464;28;20480;-81
2022/09/10 10:31:39;;;;;;;1.17;0.70;;;;;;;22.24;100.00;99777.16;5027666;28;20057;-82
2022/09/10 10:34:34;;;;;;;2.40;0.98;;;;;;;22.42;100.00;99776.88;5011755;28;20058;-78
2022/09/10 10:37:09;;;;;;;2.17;1.15;;;;;;;22.03;100.00;99780.47;5014276;28;20080;-82
2022/09/10 10:39:59;;;;;;;2.35;0.88;;;;;;;22.21;100.00;99789.22;5013192;28;20108;-84
2022/09/10 10:42:35;;;;;;;2.25;0.77;;;;;;;22.40;100.00;99768.06;5013628;28;20151;-77
2022/09/10 10:45:33;;;;;;;3.05;0.90;;;;;;;22.67;100.00;99762.06;5030616;28;20058;-77
2022/09/10 10:48:10;;;;;;;1.95;0.55;;;;;;;22.60;100.00;99761.13;5031647;28;20163;-77
2022/09/10 10:50:50;;;;;;;2.60;0.80;;;;;;;22.35;100.00;99748.72;5031729;28;20091;-77
2022/09/10 10:53:42;;;;;;;2.28;0.80;;;;;;;22.74;100.00;99754.88;5031726;28;20136;-75
2022/09/10 10:56:17;;;;;;;1.35;0.60;;;;;;;22.81;100.00;99746.84;5032951;28;20045;-75
2022/09/10 10:59:04;;;;;;;0.85;0.43;;;;;;;22.59;94.66;99754.00;5033036;28;20042;-77
2022/09/10 11:01:38;;;;;;;1.25;0.50;;;;;;;22.84;82.87;99755.50;5032763;28;20407;-77
2022/09/10 11:04:24;;;;;;;1.27;0.60;;;;;;;22.98;82.29;99748.41;5031105;28;20045;-75
2022/09/10 11:06:57;;;;;;;1.67;0.60;;;;;;;23.09;79.65;99749.84;5031250;28;20556;-80
2022/09/10 11:09:30;;;;;;;1.25;0.60;;;;;;;23.17;75.88;99757.94;5031369;28;20049;-78
2022/09/10 11:12:02;;;;;;;3.43;0.53;;;;;;;23.25;68.86;99749.66;5031415;28;20462;-76
2022/09/10 11:14:38;;;;;;;1.05;0.60;;;;;;;23.27;61.68;99747.63;5032786;28;20068;-80
2022/09/10 11:17:18;;;;;;;1.45;0.50;;;;;;;23.30;59.56;99752.69;5031362;28;20080;-80
2022/09/10 11:19:53;;;;;;;1.00;0.50;;;;;;;23.11;60.34;99754.06;5031624;28;20080;-78
2022/09/10 11:22:48;;;;;;;1.80;0.73;;;;;;;23.07;59.64;99746.47;5031396;28;20128;-80
2022/09/10 11:25:22;;;;;;;0.85;0.60;;;;;;;23.16;58.02;99750.78;5031510;28;20050;-76
2022/09/10 11:27:53;;;;;;;1.63;0.45;;;;;;;23.18;56.00;99748.75;5032940;28;20128;-77
2022/09/10 11:30:23;;;;;;;1.23;0.77;;;;;;;23.24;55.04;99742.53;5031232;28;20053;-79
2022/09/10 11:32:57;;;;;;;1.40;0.40;;;;;;;23.40;55.67;99734.19;5031064;28;20053;-76
2022/09/10 11:35:30;;;;;;;1.95;0.43;;;;;;;23.14;54.18;99739.25;5032411;28;20100;-76
2022/09/10 11:38:06;;;;;;;2.10;0.60;;;;;;;23.32;53.83;99744.31;5032428;28;20116;-79
2022/09/10 11:40:41;;;;;;;1.98;0.60;;;;;;;23.41;53.70;99744.06;5031297;28;20099;-77
2022/09/10 11:43:14;;;;;;;2.65;0.70;;;;;;;23.47;53.64;99744.34;5031161;28;20049;-80
2022/09/10 11:45:51;;;;;;;2.63;0.70;;;;;;;23.17;53.87;99751.66;5032194;28;20484;-79
2022/09/10 11:48:27;;;;;;;2.28;0.68;;;;;;;23.33;55.51;99741.41;5031389;28;20060;-78